PWSweather.com
Personal Weather Stations
Station Observations
WISCHPK61
Green Bay Schmitt Park, Green Bay, WI 54311

Green Bay Schmitt ParkGreen Bay, WI 54311

Lat: 44.514277, Lon: -87.935067

Elevation: 735

Station Type: Acu Rite Pro Weather Center model 02032C

http://greenbayweathercam.com

High Low Average
Temperature 61.7°F16.5°C 51.1°F10.6°C 57.1°F13.9°C
Dew Point 61.4°F16.3°C 49.1°F9.5°C 55.9°F13.3°C
Winds Calm Calm Calm Calm Calm SSWCalm SSW
Wind Gusts -- -- --
Humidity 99% 77% 96%
Pressure 29.31 in992.6 mb 29.15 in987.1 mb -
Precipitation 1.36 in34.5 mm - -
Hour Temp Dew Point Humidity Winds Wind Gusts Pressure Precip Precip Rate Daily Precip Total
12:00 AM 64.6°F18.1°C 64.3°F17.9°C 99% Calm Calm -- 29.31 in992.6 mb - 0.00 in0.0 mm 0.00 in0.0 mm
01:00 AM 61.2°F16.2°C 60.9°F16.1°C 99% Calm Calm -- 29.31 in992.6 mb - 0.00 in0.0 mm 0.00 in0.0 mm
02:00 AM 60.0°F15.6°C 52.8°F11.6°C 77% Calm Calm -- 29.29 in991.9 mb - 0.00 in0.0 mm 0.00 in0.0 mm
03:00 AM 58.8°F14.9°C 58.5°F14.7°C 99% Calm Calm -- 29.29 in991.9 mb - 0.00 in0.0 mm 0.00 in0.0 mm
04:00 AM 57.9°F14.4°C 52.8°F11.6°C 83% Calm Calm -- 29.26 in990.9 mb - 0.00 in0.0 mm 0.00 in0.0 mm
05:00 AM 57.4°F14.1°C 56.8°F13.8°C 98% Calm Calm -- 29.26 in990.9 mb - 0.00 in0.0 mm 0.00 in0.0 mm
06:00 AM 57.4°F14.1°C 57.1°F13.9°C 99% Calm Calm -- 29.25 in990.5 mb - 0.00 in0.0 mm 0.00 in0.0 mm
07:00 AM 57.4°F14.1°C 57.1°F13.9°C 99% Calm Calm -- 29.25 in990.5 mb - 0.00 in0.0 mm 0.00 in0.0 mm
08:00 AM 56.7°F13.7°C 54.7°F12.6°C 93% Calm Calm -- 29.23 in989.8 mb - 0.05 in1.3 mm 0.05 in1.3 mm
09:00 AM 57.9°F14.4°C 57.6°F14.2°C 99% Calm Calm -- 29.23 in989.8 mb - 0.01 in0.3 mm 0.06 in1.5 mm
10:00 AM 59.0°F15.0°C 58.7°F14.8°C 99% Calm Calm -- 29.20 in988.8 mb - 0.01 in0.3 mm 0.07 in1.8 mm
11:00 AM 60.3°F15.7°C 60.0°F15.6°C 99% Calm Calm -- 29.20 in988.8 mb - 0.00 in0.0 mm 0.07 in1.8 mm
12:00 PM 61.0°F16.1°C 60.7°F15.9°C 99% Calm Calm -- 29.19 in988.5 mb - 0.00 in0.0 mm 0.07 in1.8 mm
01:00 PM 59.7°F15.4°C 59.1°F15.1°C 98% Calm Calm -- 29.18 in988.1 mb - 0.01 in0.3 mm 0.08 in2.0 mm
02:00 PM 61.7°F16.5°C 61.4°F16.3°C 99% Calm Calm -- 29.16 in987.5 mb - 0.03 in0.8 mm 0.11 in2.8 mm
03:00 PM 59.9°F15.5°C 59.6°F15.3°C 99% Calm Calm -- 29.16 in987.5 mb - 0.05 in1.3 mm 0.16 in4.1 mm
04:00 PM 57.6°F14.2°C 57.3°F14.1°C 99% Calm Calm -- 29.16 in987.5 mb - 0.56 in14.2 mm 0.71 in18.0 mm
05:00 PM 55.9°F13.3°C 55.6°F13.1°C 99% Calm Calm -- 29.16 in987.5 mb - 0.20 in5.1 mm 0.91 in23.1 mm
06:00 PM 55.9°F13.3°C 55.6°F13.1°C 99% Calm Calm -- 29.15 in987.1 mb - 0.06 in1.5 mm 0.97 in24.6 mm
07:00 PM 54.9°F12.7°C 51.7°F10.9°C 89% Calm Calm -- 29.16 in987.5 mb - 0.05 in1.3 mm 1.02 in25.9 mm
08:00 PM 53.4°F11.9°C 52.3°F11.3°C 96% Calm Calm -- 29.18 in988.1 mb - 0.07 in1.8 mm 1.09 in27.7 mm
09:00 PM 52.2°F11.2°C 49.1°F9.5°C 89% Calm Calm -- 29.18 in988.1 mb - 0.13 in3.3 mm 1.20 in30.5 mm
10:00 PM 51.3°F10.7°C 51.0°F10.6°C 99% Calm Calm -- 29.19 in988.5 mb - 0.14 in3.6 mm 1.34 in34.0 mm
11:00 PM 51.1°F10.6°C 50.8°F10.4°C 99% Calm Calm -- 29.17 in987.8 mb - 0.02 in0.5 mm 1.36 in34.5 mm